createdAt,value
2018-08-20T00:01:37.768Z,68.71
2018-08-20T00:04:10.348Z,69.32
2018-08-20T00:06:51.683Z,69.62
2018-08-20T00:09:22.050Z,71.10
2018-08-20T00:11:51.724Z,71.05
2018-08-20T00:14:22.321Z,70.30
2018-08-20T00:16:50.973Z,71.17
2018-08-20T00:19:19.713Z,71.77
2018-08-20T00:21:48.385Z,71.41
2018-08-20T00:24:17.184Z,70.92
2018-08-20T00:26:46.942Z,71.72
2018-08-20T00:29:15.605Z,71.50
2018-08-20T00:31:44.228Z,72.05
2018-08-20T00:34:13.086Z,72.44
2018-08-20T00:36:42.001Z,73.71
2018-08-20T00:39:11.454Z,72.51
2018-08-20T00:41:40.094Z,72.42
2018-08-20T00:44:12.909Z,72.96
2018-08-20T00:46:42.611Z,73.48
2018-08-20T00:49:11.646Z,73.50
2018-08-20T00:51:40.347Z,73.07
2018-08-20T00:54:09.036Z,72.68
2018-08-20T00:56:38.678Z,72.94
2018-08-20T00:59:07.249Z,72.80
2018-08-20T01:01:35.824Z,72.84
2018-08-20T01:04:04.548Z,72.22
2018-08-20T01:06:34.158Z,72.29
2018-08-20T01:09:02.939Z,72.76
2018-08-20T01:11:31.628Z,72.81
2018-08-20T01:14:00.842Z,73.33
2018-08-20T01:16:29.396Z,72.84
2018-08-20T01:18:58.014Z,73.45
2018-08-20T01:21:26.823Z,72.96
2018-08-20T01:23:55.408Z,72.57
2018-08-20T01:26:24.409Z,73.77
2018-08-20T01:28:52.989Z,73.59
2018-08-20T01:31:21.645Z,73.75
2018-08-20T01:33:50.364Z,74.33
2018-08-20T01:36:19.026Z,73.86
2018-08-20T01:38:47.710Z,74.62
2018-08-20T01:41:16.397Z,74.19
2018-08-20T01:43:44.997Z,74.86
2018-08-20T01:46:13.669Z,74.62
2018-08-20T01:48:42.352Z,74.48
2018-08-20T01:51:11.084Z,75.05
2018-08-20T01:53:39.736Z,74.33
2018-08-20T01:56:08.690Z,75.19
2018-08-20T01:58:38.268Z,74.78
2018-08-20T02:01:06.921Z,75.33
2018-08-20T02:03:35.639Z,75.46
2018-08-20T02:06:04.350Z,75.50
2018-08-20T02:08:33.136Z,76.02
2018-08-20T02:11:01.777Z,75.56
2018-08-20T02:13:30.490Z,76.20
2018-08-20T02:15:59.129Z,76.54
2018-08-20T02:18:27.725Z,77.06
2018-08-20T02:20:56.516Z,77.06
2018-08-20T02:23:25.061Z,76.82
2018-08-20T02:25:55.149Z,76.78
2018-08-20T02:28:23.849Z,76.97
2018-08-20T02:30:52.694Z,77.58
2018-08-20T02:33:21.262Z,77.07
2018-08-20T02:35:50.344Z,77.77
2018-08-20T02:38:18.932Z,78.00
2018-08-20T02:40:47.539Z,77.88
2018-08-20T02:43:16.300Z,77.95
2018-08-20T02:45:45.038Z,77.30
2018-08-20T02:48:13.645Z,78.59
2018-08-20T02:50:43.233Z,79.14
2018-08-20T02:53:11.918Z,79.70
2018-08-20T02:55:40.542Z,80.05
2018-08-20T02:58:09.280Z,79.75
2018-08-20T03:00:37.965Z,79.51
2018-08-20T03:03:06.643Z,80.05
2018-08-20T03:05:35.350Z,80.15
2018-08-20T03:08:04.209Z,79.61
2018-08-20T03:10:32.828Z,80.25
2018-08-20T03:13:01.632Z,80.58
2018-08-20T03:15:30.383Z,80.78
2018-08-20T03:17:59.072Z,82.22
2018-08-20T03:20:27.788Z,82.22
2018-08-20T03:22:56.512Z,81.85
2018-08-20T03:25:25.118Z,82.29
2018-08-20T03:27:53.764Z,81.61
2018-08-20T03:30:22.478Z,82.07
2018-08-20T03:32:51.165Z,82.34
2018-08-20T03:35:20.581Z,82.79
2018-08-20T03:37:49.254Z,82.62
2018-08-20T03:40:17.892Z,82.52
2018-08-20T03:42:46.528Z,83.48
2018-08-20T03:45:15.129Z,82.81
2018-08-20T03:47:43.889Z,82.88
2018-08-20T03:50:14.444Z,83.37
2018-08-20T03:52:43.080Z,83.58
2018-08-20T03:55:12.433Z,84.05
2018-08-20T03:57:41.172Z,83.31
2018-08-20T04:00:11.092Z,83.74
2018-08-20T04:02:40.751Z,84.02
2018-08-20T04:05:09.520Z,83.84
2018-08-20T04:07:38.362Z,83.92
2018-08-20T04:10:07.245Z,84.83
2018-08-20T04:12:35.854Z,83.53
2018-08-20T04:15:04.513Z,83.60
2018-08-20T04:17:33.166Z,83.29
2018-08-20T04:20:02.610Z,83.42
2018-08-20T04:22:32.289Z,84.75
2018-08-20T04:25:01.112Z,84.17
2018-08-20T04:27:29.829Z,84.67
2018-08-20T04:29:58.543Z,85.43
2018-08-20T04:32:27.284Z,84.81
2018-08-20T04:34:56.496Z,85.67
2018-08-20T04:37:26.117Z,85.57
2018-08-20T04:39:54.837Z,84.61
2018-08-20T04:42:23.561Z,84.56
2018-08-20T04:44:52.506Z,85.07
2018-08-20T04:47:21.114Z,85.72
2018-08-20T04:49:49.854Z,85.64
2018-08-20T04:52:18.584Z,84.27
2018-08-20T04:54:47.221Z,83.93
2018-08-20T04:57:16.169Z,83.68
2018-08-20T04:59:44.824Z,82.78
2018-08-20T05:02:13.600Z,82.92
2018-08-20T05:04:42.432Z,82.73
2018-08-20T05:07:11.097Z,81.33
2018-08-20T05:09:39.818Z,80.61
2018-08-20T05:12:09.497Z,80.57
2018-08-20T05:14:38.212Z,81.25
2018-08-20T05:17:06.848Z,78.94
2018-08-20T05:19:36.439Z,78.44
2018-08-20T05:22:05.235Z,78.01
2018-08-20T05:24:33.837Z,76.71
2018-08-20T05:27:02.501Z,76.68
2018-08-20T05:29:31.210Z,75.27
2018-08-20T05:31:59.941Z,75.46
2018-08-20T05:34:28.531Z,74.45
2018-08-20T05:36:57.346Z,74.07
2018-08-20T05:39:25.945Z,73.14
2018-08-20T05:41:54.624Z,73.48
2018-08-20T05:44:23.305Z,72.00
2018-08-20T05:46:52.133Z,71.49
2018-08-20T05:49:20.705Z,71.19
2018-08-20T05:51:49.451Z,71.09
2018-08-20T05:54:18.087Z,70.65
2018-08-20T05:56:46.725Z,70.59
2018-08-20T05:59:15.812Z,70.63
2018-08-20T06:01:44.539Z,70.95
2018-08-20T06:04:14.428Z,69.57
2018-08-20T06:06:43.131Z,70.65
2018-08-20T06:09:12.191Z,69.50
2018-08-20T06:11:40.980Z,69.87
2018-08-20T06:14:09.950Z,69.22
2018-08-20T06:16:38.622Z,69.31
2018-08-20T06:19:07.460Z,68.37
2018-08-20T06:21:36.052Z,68.85
2018-08-20T06:24:04.713Z,68.31
2018-08-20T06:26:33.363Z,67.61
2018-08-20T06:29:02.012Z,66.75
2018-08-20T06:31:30.606Z,66.18
2018-08-20T06:33:59.212Z,65.85
2018-08-20T06:36:27.933Z,66.73
2018-08-20T06:38:56.547Z,66.28
2018-08-20T06:41:25.452Z,66.74
2018-08-20T06:43:54.136Z,66.88
2018-08-20T06:46:22.822Z,66.12
2018-08-20T06:48:51.620Z,66.18
2018-08-20T06:51:20.308Z,65.11
2018-08-20T06:53:49.000Z,64.49
2018-08-20T06:56:17.665Z,63.86
2018-08-20T06:58:47.488Z,63.22
2018-08-20T07:01:16.186Z,62.98
2018-08-20T07:03:44.862Z,62.90
2018-08-20T07:06:13.598Z,62.08
2018-08-20T07:08:42.377Z,61.37
2018-08-20T07:11:11.119Z,62.53
2018-08-20T07:13:39.933Z,60.51
2018-08-20T07:16:09.232Z,61.60
2018-08-20T07:18:37.941Z,60.74
2018-08-20T07:21:06.774Z,60.33
2018-08-20T07:23:35.581Z,59.44
2018-08-20T07:26:04.248Z,58.92
2018-08-20T07:28:32.849Z,58.66
2018-08-20T07:31:01.738Z,58.87
2018-08-20T07:33:31.583Z,57.55
2018-08-20T07:36:00.238Z,58.65
2018-08-20T07:38:28.901Z,55.95
2018-08-20T07:40:57.581Z,56.70
2018-08-20T07:43:26.230Z,55.33
2018-08-20T07:45:54.957Z,55.17
2018-08-20T07:48:23.794Z,55.06
2018-08-20T07:50:52.565Z,54.03
2018-08-20T07:53:21.357Z,52.95
2018-08-20T07:55:50.017Z,53.26
2018-08-20T07:58:19.652Z,52.52
2018-08-20T08:00:49.014Z,51.56
2018-08-20T08:03:21.796Z,51.69
2018-08-20T08:05:50.542Z,49.83
2018-08-20T08:08:19.318Z,49.72
2018-08-20T08:10:48.209Z,48.94
2018-08-20T08:13:16.934Z,48.84
2018-08-20T08:15:45.913Z,49.00
2018-08-20T08:18:14.560Z,47.46
2018-08-20T08:20:43.324Z,48.68
2018-08-20T08:23:13.141Z,47.72
2018-08-20T08:25:41.814Z,47.04
2018-08-20T08:28:10.413Z,46.52
2018-08-20T08:30:39.160Z,45.35
2018-08-20T08:33:07.862Z,44.57
2018-08-20T08:35:36.542Z,44.06
2018-08-20T08:38:05.421Z,42.51
2018-08-20T08:40:34.110Z,41.71
2018-08-20T08:43:02.905Z,39.85
2018-08-20T08:45:31.569Z,38.30
2018-08-20T08:48:00.359Z,37.29
2018-08-20T08:50:29.080Z,36.97
2018-08-20T08:52:57.691Z,35.39
2018-08-20T08:55:26.390Z,33.86
2018-08-20T08:57:56.006Z,34.00
2018-08-20T09:00:25.259Z,34.04
2018-08-20T09:02:54.001Z,33.02
2018-08-20T09:05:22.668Z,32.94
2018-08-20T09:07:51.348Z,33.79
2018-08-20T09:10:20.136Z,33.93
2018-08-20T09:12:48.855Z,34.91
2018-08-20T09:15:18.157Z,35.04
2018-08-20T09:17:47.257Z,34.83
2018-08-20T09:20:17.271Z,34.58
2018-08-20T09:22:46.016Z,34.72
2018-08-20T09:25:15.244Z,34.68
2018-08-20T09:27:44.990Z,34.32
2018-08-20T09:30:17.770Z,34.36
2018-08-20T09:32:47.568Z,34.69
2018-08-20T09:35:16.458Z,35.21
2018-08-20T09:37:45.285Z,34.93
2018-08-20T09:40:15.339Z,34.39
2018-08-20T09:42:44.650Z,34.39
2018-08-20T09:45:13.370Z,33.26
2018-08-20T09:47:42.981Z,33.82
2018-08-20T09:50:15.380Z,33.99
2018-08-20T09:52:44.583Z,34.71
2018-08-20T09:55:13.589Z,33.04
2018-08-20T09:57:42.594Z,33.30
2018-08-20T10:00:16.096Z,33.18
2018-08-20T10:02:44.747Z,32.73
2018-08-20T10:05:13.481Z,33.17
2018-08-20T10:07:43.241Z,32.24
2018-08-20T10:10:12.069Z,33.43
2018-08-20T10:12:40.945Z,32.92
2018-08-20T10:15:09.917Z,34.04
2018-08-20T10:17:39.357Z,33.95
2018-08-20T10:20:10.266Z,34.09
2018-08-20T10:22:39.194Z,34.00
2018-08-20T10:25:07.980Z,34.03
2018-08-20T10:27:36.581Z,34.00
2018-08-20T10:30:06.333Z,35.05
2018-08-20T10:32:34.903Z,35.22
2018-08-20T10:35:03.616Z,34.23
2018-08-20T10:37:32.960Z,34.56
2018-08-20T10:40:01.975Z,34.36
2018-08-20T10:42:30.969Z,33.85
2018-08-20T10:45:04.829Z,34.45
2018-08-20T10:47:42.461Z,34.80
2018-08-20T10:50:14.409Z,34.38
2018-08-20T10:52:44.673Z,34.30
2018-08-20T10:55:13.344Z,34.13
2018-08-20T10:57:43.090Z,34.06
2018-08-20T11:00:12.393Z,34.62
2018-08-20T11:02:41.321Z,33.76
2018-08-20T11:05:12.285Z,32.93
2018-08-20T11:07:41.951Z,33.91
2018-08-20T11:10:11.736Z,33.27
2018-08-20T11:12:41.470Z,32.98
2018-08-20T11:15:11.209Z,32.45
2018-08-20T11:17:41.289Z,32.72
2018-08-20T11:20:13.674Z,32.56
2018-08-20T11:22:42.946Z,33.26
2018-08-20T11:25:13.093Z,31.16
2018-08-20T11:27:42.057Z,30.65
2018-08-20T11:30:12.500Z,29.36
2018-08-20T11:32:41.278Z,29.15
2018-08-20T11:35:11.433Z,28.63
2018-08-20T11:37:40.345Z,28.92
2018-08-20T11:40:09.624Z,26.48
2018-08-20T11:42:38.900Z,27.03
2018-08-20T11:45:09.864Z,27.41
2018-08-20T11:47:38.532Z,27.67
2018-08-20T12:31:16.616Z,26.44
2018-08-20T12:33:45.536Z,26.37
2018-08-20T12:36:14.348Z,25.89
2018-08-20T12:38:42.997Z,25.81
2018-08-20T12:41:12.777Z,25.19
2018-08-20T12:43:41.421Z,25.36
2018-08-20T12:46:10.761Z,25.16
2018-08-20T12:48:40.076Z,24.31
2018-08-20T12:51:08.789Z,24.23
2018-08-20T12:53:38.193Z,24.74
2018-08-20T12:56:07.072Z,24.98
2018-08-20T12:58:36.476Z,24.66
2018-08-20T13:01:05.887Z,24.00
2018-08-20T13:03:34.648Z,24.57
2018-08-20T13:06:03.349Z,26.10
2018-08-20T13:08:32.043Z,25.85
2018-08-20T13:11:00.766Z,26.28
2018-08-20T13:13:29.643Z,25.17
2018-08-20T13:15:58.750Z,25.24
2018-08-20T13:18:27.479Z,25.20
2018-08-20T13:20:56.212Z,25.56
2018-08-20T13:23:26.145Z,24.69
2018-08-20T13:25:54.805Z,24.60
2018-08-20T13:28:24.316Z,24.87
2018-08-20T13:30:53.433Z,25.43
2018-08-20T13:33:22.741Z,24.68
2018-08-20T13:35:51.452Z,24.15
2018-08-20T13:38:20.477Z,24.95
2018-08-20T13:40:49.408Z,24.97
2018-08-20T13:43:18.156Z,25.84
2018-08-20T13:45:47.684Z,24.80
2018-08-20T13:48:17.242Z,24.96
2018-08-20T13:50:46.943Z,24.97
2018-08-20T13:53:16.451Z,24.70
2018-08-20T13:55:45.293Z,24.58
2018-08-20T13:58:14.722Z,25.13
2018-08-20T14:00:43.436Z,24.83
2018-08-20T14:03:12.101Z,24.98
2018-08-20T14:05:40.856Z,24.97
2018-08-20T14:08:09.864Z,25.83
2018-08-20T14:10:38.728Z,25.72
2018-08-20T14:13:08.106Z,24.90
2018-08-20T14:15:37.556Z,24.95
2018-08-20T14:18:06.381Z,25.47
2018-08-20T14:20:35.043Z,24.86
2018-08-20T14:23:05.054Z,25.04
2018-08-20T14:25:34.271Z,25.34
2018-08-20T14:28:04.077Z,25.12
2018-08-20T14:30:32.823Z,24.82
2018-08-20T14:33:01.489Z,26.13
2018-08-20T14:35:30.341Z,25.70
2018-08-20T14:37:58.974Z,25.04
2018-08-20T14:40:28.423Z,25.28
2018-08-20T14:42:57.315Z,24.96
2018-08-20T14:45:30.065Z,25.93
2018-08-20T14:47:58.918Z,26.36
2018-08-20T14:50:28.388Z,25.61
2018-08-20T14:52:57.831Z,26.63
2018-08-20T14:55:26.678Z,25.49
2018-08-20T14:57:55.334Z,25.89
2018-08-20T15:00:25.085Z,25.94
2018-08-20T15:02:53.809Z,25.33
2018-08-20T15:05:23.005Z,25.29
2018-08-20T15:07:51.775Z,26.41
2018-08-20T15:10:20.582Z,26.28
2018-08-20T15:12:49.175Z,26.18
2018-08-20T15:15:17.986Z,27.24
2018-08-20T15:17:46.766Z,27.30
2018-08-20T15:20:15.437Z,27.74
2018-08-20T15:22:44.112Z,27.39
2018-08-20T15:25:12.892Z,28.01
2018-08-20T15:27:41.573Z,27.13
2018-08-20T15:30:10.429Z,27.54
2018-08-20T15:32:39.299Z,27.83
2018-08-20T15:35:07.966Z,27.91
2018-08-20T15:37:36.598Z,28.12
2018-08-20T15:40:05.805Z,29.12
2018-08-20T15:42:35.064Z,29.85
2018-08-20T15:45:05.032Z,28.55
2018-08-20T15:47:33.752Z,29.19
2018-08-20T15:50:02.490Z,29.27
2018-08-20T15:52:31.193Z,28.66
2018-08-20T15:54:59.792Z,29.81
2018-08-20T15:57:28.471Z,29.65
2018-08-20T15:59:57.121Z,29.28
2018-08-20T16:02:25.775Z,29.21
2018-08-20T16:04:54.630Z,30.33
2018-08-20T16:07:23.293Z,30.38
2018-08-20T16:09:51.997Z,31.24
2018-08-20T16:12:20.572Z,31.03
2018-08-20T16:14:49.277Z,30.71
2018-08-20T16:17:17.900Z,30.74
2018-08-20T16:19:46.828Z,31.54
2018-08-20T16:22:15.703Z,31.76
2018-08-20T16:24:44.426Z,32.19
2018-08-20T16:27:13.251Z,31.68
2018-08-20T16:29:42.050Z,32.93
2018-08-20T16:32:11.777Z,33.02
2018-08-20T16:34:40.504Z,33.24
2018-08-20T16:37:09.245Z,33.49
2018-08-20T16:39:38.307Z,33.35
2018-08-20T16:42:06.950Z,34.41
2018-08-20T16:44:36.122Z,34.60
2018-08-20T16:47:04.977Z,35.56
2018-08-20T16:49:33.734Z,35.83
2018-08-20T16:52:02.509Z,35.74
2018-08-20T16:54:32.448Z,36.03
2018-08-20T16:57:01.080Z,37.39
2018-08-20T16:59:29.885Z,36.76
2018-08-20T17:01:58.600Z,36.97
2018-08-20T17:04:32.005Z,38.38
2018-08-20T17:07:02.063Z,38.64
2018-08-20T17:09:30.804Z,38.29
2018-08-20T17:11:59.392Z,39.45
2018-08-20T17:14:27.988Z,39.87
2018-08-20T17:16:56.845Z,40.18
2018-08-20T17:19:25.488Z,39.64
2018-08-20T17:21:54.243Z,39.83
2018-08-20T17:24:30.581Z,40.24
2018-08-20T17:27:01.689Z,41.50
2018-08-20T17:29:30.463Z,41.02
2018-08-20T17:32:00.958Z,42.06
2018-08-20T17:34:29.886Z,42.50
2018-08-20T17:36:58.601Z,43.03
2018-08-20T17:39:27.377Z,43.35
2018-08-20T17:41:56.041Z,44.09
2018-08-20T17:44:24.729Z,44.33
2018-08-20T17:46:53.583Z,45.05
2018-08-20T17:49:27.377Z,45.62
2018-08-20T17:51:56.373Z,47.17
2018-08-20T17:54:26.351Z,47.91
2018-08-20T17:56:55.882Z,48.58
2018-08-20T17:59:24.480Z,48.69
2018-08-20T18:01:54.973Z,49.06
2018-08-20T18:04:23.899Z,50.30
2018-08-20T18:06:55.237Z,50.84
2018-08-20T18:09:23.858Z,50.29
2018-08-20T18:11:53.843Z,50.76
2018-08-20T18:14:23.550Z,52.09
2018-08-20T18:16:52.353Z,52.13
2018-08-20T18:19:21.165Z,51.93
2018-08-20T18:21:50.152Z,52.94
2018-08-20T18:24:20.279Z,53.35
2018-08-20T18:26:54.235Z,53.68
2018-08-20T18:29:23.990Z,53.22
2018-08-20T18:31:56.525Z,53.38
2018-08-20T18:34:25.798Z,53.02
2018-08-20T18:36:54.493Z,53.35
2018-08-20T18:39:23.777Z,53.48
2018-08-20T18:42:13.882Z,53.56
2018-08-20T18:44:42.690Z,54.81
2018-08-20T18:47:12.989Z,54.28
2018-08-20T18:49:51.781Z,54.92
2018-08-20T18:52:21.686Z,54.64
2018-08-20T18:54:53.417Z,54.57
2018-08-20T18:57:29.519Z,54.94
2018-08-20T19:00:00.268Z,55.51
2018-08-20T19:02:47.060Z,56.06
2018-08-20T19:05:17.096Z,55.56
2018-08-20T19:07:45.973Z,55.77
2018-08-20T19:10:23.077Z,56.32
2018-08-20T19:12:52.057Z,56.84
2018-08-20T19:15:35.680Z,56.65
2018-08-20T19:18:04.608Z,56.51
2018-08-20T19:20:33.394Z,57.40
2018-08-20T19:23:02.097Z,57.48
2018-08-20T19:25:31.383Z,57.76
2018-08-20T19:28:03.932Z,57.83
2018-08-20T19:30:33.566Z,57.58
2018-08-20T19:33:04.522Z,57.61
2018-08-20T19:35:33.097Z,58.33
2018-08-20T19:38:01.789Z,57.93
2018-08-20T19:40:30.707Z,58.65
2018-08-20T19:42:59.409Z,58.47
2018-08-20T19:45:32.277Z,58.85
2018-08-20T19:48:00.982Z,58.87
2018-08-20T19:50:29.860Z,59.27
2018-08-20T19:52:58.637Z,59.00
2018-08-20T19:55:27.277Z,59.01
2018-08-20T19:57:56.069Z,59.36
2018-08-20T20:00:24.786Z,59.05
2018-08-20T20:02:53.481Z,59.66
2018-08-20T20:05:22.274Z,60.10
2018-08-20T20:07:57.395Z,60.46
2018-08-20T20:10:27.137Z,60.40
2018-08-20T20:12:56.571Z,60.86
2018-08-20T20:15:25.876Z,60.34
2018-08-20T20:17:55.696Z,60.66
2018-08-20T20:20:24.522Z,61.01
2018-08-20T20:22:53.510Z,60.35
2018-08-20T20:25:22.466Z,60.90
2018-08-20T20:27:51.165Z,61.51
2018-08-20T20:30:19.761Z,60.90
2018-08-20T20:32:49.565Z,62.12
2018-08-20T20:35:18.229Z,61.81
2018-08-20T20:37:46.866Z,61.93
2018-08-20T20:40:15.590Z,62.27
2018-08-20T20:42:44.417Z,62.78
2018-08-20T20:45:13.041Z,62.76
2018-08-20T20:47:43.430Z,63.41
2018-08-20T20:50:12.108Z,63.39
2018-08-20T20:52:41.198Z,64.07
2018-08-20T20:55:10.077Z,64.34
2018-08-20T20:57:38.683Z,64.18
2018-08-20T21:00:08.902Z,63.89
2018-08-20T21:02:38.998Z,64.35
2018-08-20T21:05:10.428Z,64.54
2018-08-20T21:07:39.392Z,64.83
2018-08-20T21:10:08.776Z,65.06
2018-08-20T21:12:37.510Z,64.72
2018-08-20T21:15:08.000Z,64.70
2018-08-20T21:17:37.858Z,65.23
2018-08-20T21:20:07.403Z,65.00
2018-08-20T21:22:37.755Z,64.54
2018-08-20T21:25:08.445Z,64.81
2018-08-20T21:27:37.185Z,64.88
2018-08-20T21:30:06.209Z,65.47
2018-08-20T21:32:35.976Z,64.80
2018-08-20T21:35:04.689Z,65.34
2018-08-20T21:37:33.397Z,66.00
2018-08-20T21:40:02.148Z,65.64
2018-08-20T21:42:37.343Z,65.74
2018-08-20T21:45:06.551Z,66.26
2018-08-20T21:47:35.125Z,66.01
2018-08-20T21:50:03.797Z,65.75
2018-08-20T21:52:33.209Z,65.82
2018-08-20T21:55:03.041Z,65.79
2018-08-20T21:57:32.469Z,66.27
2018-08-20T22:00:12.516Z,66.18
2018-08-20T22:02:41.945Z,66.42
2018-08-20T22:05:10.660Z,65.98
2018-08-20T22:07:40.285Z,65.96
2018-08-20T22:10:09.136Z,66.69
2018-08-20T22:12:37.834Z,66.11
2018-08-20T22:15:07.996Z,66.81
2018-08-20T22:17:37.053Z,66.75
2018-08-20T22:20:07.655Z,67.16
2018-08-20T22:22:36.366Z,67.09
2018-08-20T22:25:09.738Z,67.07
2018-08-20T22:27:43.688Z,66.96
2018-08-20T22:30:13.271Z,67.71
2018-08-20T22:32:44.257Z,67.45
2018-08-20T22:35:18.356Z,67.55
2018-08-20T22:37:49.328Z,67.69
2018-08-20T22:40:19.785Z,68.01
2018-08-20T22:42:55.077Z,67.48
2018-08-20T22:45:23.794Z,67.42
2018-08-20T22:47:53.399Z,68.01
2018-08-20T22:50:22.105Z,67.85
2018-08-20T22:52:51.846Z,67.94
2018-08-20T22:55:21.764Z,67.82
2018-08-20T22:58:16.019Z,68.51
2018-08-20T23:00:44.681Z,68.46
2018-08-20T23:03:13.349Z,68.62
2018-08-20T23:05:42.006Z,68.90
2018-08-20T23:08:15.928Z,69.26
2018-08-20T23:10:44.606Z,70.64
2018-08-20T23:13:13.429Z,71.46
2018-08-20T23:15:42.328Z,72.22
2018-08-20T23:18:11.009Z,72.50
2018-08-20T23:20:39.789Z,72.32
2018-08-20T23:23:09.279Z,72.80
2018-08-20T23:25:38.148Z,73.26
2018-08-20T23:28:07.570Z,73.72
2018-08-20T23:30:36.279Z,74.38
2018-08-20T23:33:06.528Z,74.14
2018-08-20T23:35:36.066Z,75.13
2018-08-20T23:38:05.000Z,75.49
2018-08-20T23:40:33.741Z,75.03
2018-08-20T23:43:02.496Z,75.65
2018-08-20T23:45:31.060Z,76.09
2018-08-20T23:47:59.755Z,76.28
2018-08-20T23:50:28.330Z,76.93
2018-08-20T23:52:56.924Z,77.09
2018-08-20T23:55:25.636Z,78.14
2018-08-20T23:57:54.275Z,78.08
